sensor_id;sensor_type;location;lat;lon;timestamp;P1;durP1;ratioP1;P2;durP2;ratioP2
76850;SDS011;65824;43.726;20.692;2024-03-23T00:54:09;39.78;;;21.27;;
76850;SDS011;65824;43.726;20.692;2024-03-23T00:56:36;45.95;;;22.45;;
76850;SDS011;65824;43.726;20.692;2024-03-23T00:59:01;50.33;;;24.58;;
76850;SDS011;65824;43.726;20.692;2024-03-23T01:01:30;54.03;;;26.95;;
76850;SDS011;65824;43.726;20.692;2024-03-23T01:03:56;49.22;;;24.33;;
76850;SDS011;65824;43.726;20.692;2024-03-23T01:06:22;42.97;;;21.88;;
76850;SDS011;65824;43.726;20.692;2024-03-23T01:08:48;41.13;;;18.20;;
76850;SDS011;65824;43.726;20.692;2024-03-23T01:11:13;30.65;;;16.20;;
76850;SDS011;65824;43.726;20.692;2024-03-23T01:13:40;29.08;;;16.30;;
76850;SDS011;65824;43.726;20.692;2024-03-23T01:16:06;33.22;;;16.67;;
76850;SDS011;65824;43.726;20.692;2024-03-23T01:18:31;31.70;;;15.75;;
76850;SDS011;65824;43.726;20.692;2024-03-23T01:20:58;27.98;;;15.02;;
76850;SDS011;65824;43.726;20.692;2024-03-23T01:23:23;27.92;;;14.05;;
76850;SDS011;65824;43.726;20.692;2024-03-23T01:25:55;28.10;;;14.73;;
76850;SDS011;65824;43.726;20.692;2024-03-23T01:28:21;27.48;;;13.95;;
76850;SDS011;65824;43.726;20.692;2024-03-23T01:30:47;26.58;;;14.48;;
76850;SDS011;65824;43.726;20.692;2024-03-23T01:33:13;25.02;;;12.80;;
76850;SDS011;65824;43.726;20.692;2024-03-23T01:35:39;25.95;;;14.10;;
76850;SDS011;65824;43.726;20.692;2024-03-23T01:38:05;23.92;;;12.90;;
76850;SDS011;65824;43.726;20.692;2024-03-23T01:40:32;25.52;;;13.38;;
76850;SDS011;65824;43.726;20.692;2024-03-23T01:42:58;31.10;;;15.13;;
76850;SDS011;65824;43.726;20.692;2024-03-23T01:45:28;47.78;;;23.65;;
76850;SDS011;65824;43.726;20.692;2024-03-23T01:47:54;56.65;;;29.98;;
76850;SDS011;65824;43.726;20.692;2024-03-23T01:50:21;60.25;;;29.58;;
76850;SDS011;65824;43.726;20.692;2024-03-23T01:52:47;54.25;;;25.70;;
76850;SDS011;65824;43.726;20.692;2024-03-23T01:55:13;58.92;;;27.20;;
76850;SDS011;65824;43.726;20.692;2024-03-23T01:57:39;62.55;;;30.00;;
76850;SDS011;65824;43.726;20.692;2024-03-23T02:00:05;64.13;;;29.98;;
76850;SDS011;65824;43.726;20.692;2024-03-23T02:02:32;65.93;;;30.45;;
76850;SDS011;65824;43.726;20.692;2024-03-23T02:04:58;65.55;;;31.35;;
76850;SDS011;65824;43.726;20.692;2024-03-23T02:07:24;59.97;;;29.73;;
76850;SDS011;65824;43.726;20.692;2024-03-23T02:09:50;48.97;;;24.88;;
76850;SDS011;65824;43.726;20.692;2024-03-23T02:12:17;45.55;;;22.38;;
76850;SDS011;65824;43.726;20.692;2024-03-23T02:14:43;41.75;;;19.55;;
76850;SDS011;65824;43.726;20.692;2024-03-23T02:17:08;38.08;;;16.05;;
76850;SDS011;65824;43.726;20.692;2024-03-23T02:19:34;30.20;;;14.50;;
76850;SDS011;65824;43.726;20.692;2024-03-23T02:22:00;27.90;;;13.57;;
76850;SDS011;65824;43.726;20.692;2024-03-23T02:24:25;25.95;;;12.90;;
76850;SDS011;65824;43.726;20.692;2024-03-23T02:26:51;25.73;;;13.27;;
76850;SDS011;65824;43.726;20.692;2024-03-23T02:29:16;25.08;;;12.55;;
76850;SDS011;65824;43.726;20.692;2024-03-23T02:31:45;24.67;;;12.63;;
76850;SDS011;65824;43.726;20.692;2024-03-23T02:34:10;26.63;;;13.70;;
76850;SDS011;65824;43.726;20.692;2024-03-23T02:36:36;25.95;;;12.95;;
76850;SDS011;65824;43.726;20.692;2024-03-23T02:39:01;27.13;;;13.40;;
76850;SDS011;65824;43.726;20.692;2024-03-23T02:41:28;31.58;;;14.07;;
76850;SDS011;65824;43.726;20.692;2024-03-23T02:43:53;26.35;;;13.43;;
76850;SDS011;65824;43.726;20.692;2024-03-23T02:46:21;24.50;;;12.43;;
76850;SDS011;65824;43.726;20.692;2024-03-23T02:48:48;27.23;;;13.05;;
76850;SDS011;65824;43.726;20.692;2024-03-23T02:51:14;27.80;;;14.18;;
76850;SDS011;65824;43.726;20.692;2024-03-23T02:53:39;32.38;;;15.82;;
76850;SDS011;65824;43.726;20.692;2024-03-23T02:56:05;30.73;;;15.60;;
76850;SDS011;65824;43.726;20.692;2024-03-23T02:58:32;32.30;;;14.95;;
76850;SDS011;65824;43.726;20.692;2024-03-23T03:00:58;32.03;;;15.73;;
76850;SDS011;65824;43.726;20.692;2024-03-23T03:03:24;36.15;;;17.00;;
76850;SDS011;65824;43.726;20.692;2024-03-23T03:06:00;35.55;;;17.05;;
76850;SDS011;65824;43.726;20.692;2024-03-23T03:08:25;31.60;;;15.32;;
76850;SDS011;65824;43.726;20.692;2024-03-23T03:10:50;32.55;;;15.82;;
76850;SDS011;65824;43.726;20.692;2024-03-23T03:13:16;31.25;;;14.10;;
76850;SDS011;65824;43.726;20.692;2024-03-23T03:15:43;28.85;;;15.55;;
76850;SDS011;65824;43.726;20.692;2024-03-23T03:18:09;34.72;;;17.02;;
76850;SDS011;65824;43.726;20.692;2024-03-23T03:20:38;30.70;;;15.52;;
76850;SDS011;65824;43.726;20.692;2024-03-23T03:23:04;34.05;;;15.95;;
76850;SDS011;65824;43.726;20.692;2024-03-23T03:25:31;36.35;;;16.00;;
76850;SDS011;65824;43.726;20.692;2024-03-23T03:27:57;32.75;;;15.80;;
76850;SDS011;65824;43.726;20.692;2024-03-23T03:30:23;30.55;;;15.40;;
76850;SDS011;65824;43.726;20.692;2024-03-23T03:32:49;34.90;;;15.82;;
76850;SDS011;65824;43.726;20.692;2024-03-23T03:35:15;32.97;;;16.60;;
76850;SDS011;65824;43.726;20.692;2024-03-23T03:37:41;38.80;;;16.40;;
76850;SDS011;65824;43.726;20.692;2024-03-23T03:40:07;31.63;;;15.32;;
76850;SDS011;65824;43.726;20.692;2024-03-23T03:42:34;36.35;;;15.35;;
76850;SDS011;65824;43.726;20.692;2024-03-23T03:45:00;31.10;;;15.35;;
76850;SDS011;65824;43.726;20.692;2024-03-23T03:47:26;32.13;;;14.35;;
76850;SDS011;65824;43.726;20.692;2024-03-23T03:49:51;30.10;;;14.63;;
76850;SDS011;65824;43.726;20.692;2024-03-23T03:52:17;38.72;;;16.27;;
76850;SDS011;65824;43.726;20.692;2024-03-23T03:54:43;35.72;;;15.85;;
76850;SDS011;65824;43.726;20.692;2024-03-23T03:57:08;28.83;;;15.23;;
76850;SDS011;65824;43.726;20.692;2024-03-23T03:59:34;30.75;;;15.57;;
76850;SDS011;65824;43.726;20.692;2024-03-23T04:01:59;35.05;;;17.10;;
76850;SDS011;65824;43.726;20.692;2024-03-23T04:04:25;43.83;;;19.02;;
76850;SDS011;65824;43.726;20.692;2024-03-23T04:06:57;42.55;;;17.98;;
76850;SDS011;65824;43.726;20.692;2024-03-23T04:09:25;41.78;;;18.75;;
76850;SDS011;65824;43.726;20.692;2024-03-23T04:11:51;43.60;;;20.98;;
76850;SDS011;65824;43.726;20.692;2024-03-23T04:14:16;49.35;;;22.20;;
76850;SDS011;65824;43.726;20.692;2024-03-23T04:16:42;46.75;;;22.50;;
76850;SDS011;65824;43.726;20.692;2024-03-23T04:19:08;50.45;;;21.45;;
76850;SDS011;65824;43.726;20.692;2024-03-23T04:21:35;45.45;;;19.10;;
76850;SDS011;65824;43.726;20.692;2024-03-23T04:24:02;39.30;;;18.10;;
76850;SDS011;65824;43.726;20.692;2024-03-23T04:26:28;41.00;;;17.92;;
76850;SDS011;65824;43.726;20.692;2024-03-23T04:28:54;37.80;;;17.27;;
76850;SDS011;65824;43.726;20.692;2024-03-23T04:31:20;36.00;;;17.80;;
76850;SDS011;65824;43.726;20.692;2024-03-23T04:33:46;36.88;;;16.63;;
76850;SDS011;65824;43.726;20.692;2024-03-23T04:36:11;34.17;;;16.73;;
76850;SDS011;65824;43.726;20.692;2024-03-23T04:38:37;33.17;;;15.32;;
76850;SDS011;65824;43.726;20.692;2024-03-23T04:41:03;32.05;;;15.10;;
76850;SDS011;65824;43.726;20.692;2024-03-23T04:43:28;33.03;;;15.13;;
76850;SDS011;65824;43.726;20.692;2024-03-23T04:45:54;34.28;;;14.90;;
76850;SDS011;65824;43.726;20.692;2024-03-23T04:48:22;34.22;;;13.95;;
76850;SDS011;65824;43.726;20.692;2024-03-23T04:50:49;34.42;;;15.20;;
76850;SDS011;65824;43.726;20.692;2024-03-23T04:53:15;32.53;;;14.80;;
76850;SDS011;65824;43.726;20.692;2024-03-23T04:55:41;33.97;;;14.48;;
76850;SDS011;65824;43.726;20.692;2024-03-23T04:58:10;29.52;;;15.07;;
76850;SDS011;65824;43.726;20.692;2024-03-23T05:00:35;37.63;;;15.80;;
76850;SDS011;65824;43.726;20.692;2024-03-23T05:03:00;34.13;;;15.57;;
76850;SDS011;65824;43.726;20.692;2024-03-23T05:05:26;30.42;;;15.57;;
76850;SDS011;65824;43.726;20.692;2024-03-23T05:07:52;34.28;;;15.73;;
76850;SDS011;65824;43.726;20.692;2024-03-23T05:10:17;36.35;;;16.60;;
76850;SDS011;65824;43.726;20.692;2024-03-23T05:12:45;35.75;;;16.80;;
76850;SDS011;65824;43.726;20.692;2024-03-23T05:15:11;34.08;;;15.52;;
76850;SDS011;65824;43.726;20.692;2024-03-23T05:17:36;31.90;;;15.30;;
76850;SDS011;65824;43.726;20.692;2024-03-23T05:20:03;29.45;;;14.90;;
76850;SDS011;65824;43.726;20.692;2024-03-23T05:22:29;32.88;;;14.90;;
76850;SDS011;65824;43.726;20.692;2024-03-23T05:24:56;29.23;;;13.95;;
76850;SDS011;65824;43.726;20.692;2024-03-23T05:27:22;30.55;;;14.52;;
76850;SDS011;65824;43.726;20.692;2024-03-23T05:29:48;32.17;;;16.20;;
76850;SDS011;65824;43.726;20.692;2024-03-23T05:32:13;29.67;;;14.18;;
76850;SDS011;65824;43.726;20.692;2024-03-23T05:34:39;30.58;;;14.77;;
76850;SDS011;65824;43.726;20.692;2024-03-23T05:37:04;29.75;;;15.07;;
76850;SDS011;65824;43.726;20.692;2024-03-23T05:39:30;31.77;;;14.95;;
76850;SDS011;65824;43.726;20.692;2024-03-23T05:41:56;28.20;;;14.20;;
76850;SDS011;65824;43.726;20.692;2024-03-23T05:44:22;29.48;;;14.20;;
76850;SDS011;65824;43.726;20.692;2024-03-23T05:46:47;28.92;;;14.05;;
76850;SDS011;65824;43.726;20.692;2024-03-23T05:49:13;26.52;;;14.52;;
76850;SDS011;65824;43.726;20.692;2024-03-23T05:51:40;28.42;;;14.38;;
76850;SDS011;65824;43.726;20.692;2024-03-23T05:54:05;32.08;;;14.30;;
76850;SDS011;65824;43.726;20.692;2024-03-23T05:56:31;30.67;;;15.02;;
76850;SDS011;65824;43.726;20.692;2024-03-23T05:58:56;29.15;;;14.20;;
76850;SDS011;65824;43.726;20.692;2024-03-23T06:01:22;30.45;;;14.40;;
76850;SDS011;65824;43.726;20.692;2024-03-23T06:03:49;31.35;;;14.77;;
76850;SDS011;65824;43.726;20.692;2024-03-23T06:06:15;32.38;;;14.68;;
76850;SDS011;65824;43.726;20.692;2024-03-23T06:08:41;32.13;;;14.25;;
76850;SDS011;65824;43.726;20.692;2024-03-23T06:11:06;31.90;;;15.73;;
76850;SDS011;65824;43.726;20.692;2024-03-23T06:13:34;29.45;;;14.68;;
76850;SDS011;65824;43.726;20.692;2024-03-23T06:16:00;31.35;;;14.65;;
76850;SDS011;65824;43.726;20.692;2024-03-23T06:18:26;29.50;;;14.93;;
76850;SDS011;65824;43.726;20.692;2024-03-23T06:20:51;30.88;;;16.27;;
76850;SDS011;65824;43.726;20.692;2024-03-23T06:23:17;28.67;;;14.85;;
76850;SDS011;65824;43.726;20.692;2024-03-23T06:25:45;26.42;;;15.13;;
76850;SDS011;65824;43.726;20.692;2024-03-23T06:28:11;26.10;;;15.10;;
76850;SDS011;65824;43.726;20.692;2024-03-23T06:30:36;26.90;;;15.00;;
76850;SDS011;65824;43.726;20.692;2024-03-23T06:33:02;30.42;;;15.73;;
76850;SDS011;65824;43.726;20.692;2024-03-23T06:35:28;23.15;;;13.68;;
76850;SDS011;65824;43.726;20.692;2024-03-23T06:37:53;28.88;;;15.65;;
76850;SDS011;65824;43.726;20.692;2024-03-23T06:40:19;28.20;;;17.38;;
76850;SDS011;65824;43.726;20.692;2024-03-23T06:42:45;29.02;;;17.25;;
76850;SDS011;65824;43.726;20.692;2024-03-23T06:45:11;31.92;;;17.65;;
76850;SDS011;65824;43.726;20.692;2024-03-23T06:47:37;27.35;;;16.20;;
76850;SDS011;65824;43.726;20.692;2024-03-23T06:50:03;27.45;;;18.13;;
76850;SDS011;65824;43.726;20.692;2024-03-23T06:52:30;29.02;;;17.40;;
76850;SDS011;65824;43.726;20.692;2024-03-23T06:54:56;27.70;;;16.55;;
76850;SDS011;65824;43.726;20.692;2024-03-23T06:57:22;24.67;;;16.05;;
76850;SDS011;65824;43.726;20.692;2024-03-23T06:59:48;26.30;;;15.55;;
76850;SDS011;65824;43.726;20.692;2024-03-23T07:02:14;26.13;;;14.30;;
76850;SDS011;65824;43.726;20.692;2024-03-23T07:04:42;34.47;;;21.38;;
76850;SDS011;65824;43.726;20.692;2024-03-23T07:07:08;34.60;;;20.50;;
76850;SDS011;65824;43.726;20.692;2024-03-23T07:09:33;26.35;;;16.48;;
76850;SDS011;65824;43.726;20.692;2024-03-23T07:12:00;21.83;;;13.93;;
76850;SDS011;65824;43.726;20.692;2024-03-23T07:14:27;25.85;;;13.23;;
76850;SDS011;65824;43.726;20.692;2024-03-23T07:16:52;25.42;;;13.75;;
76850;SDS011;65824;43.726;20.692;2024-03-23T07:19:18;20.95;;;12.18;;
76850;SDS011;65824;43.726;20.692;2024-03-23T07:21:44;24.00;;;14.55;;
76850;SDS011;65824;43.726;20.692;2024-03-23T07:24:10;22.85;;;12.88;;
76850;SDS011;65824;43.726;20.692;2024-03-23T07:26:35;19.85;;;12.55;;
76850;SDS011;65824;43.726;20.692;2024-03-23T07:29:05;23.67;;;12.75;;
76850;SDS011;65824;43.726;20.692;2024-03-23T07:31:31;21.55;;;13.00;;
76850;SDS011;65824;43.726;20.692;2024-03-23T07:33:58;22.58;;;13.43;;
76850;SDS011;65824;43.726;20.692;2024-03-23T07:36:24;33.00;;;16.83;;
76850;SDS011;65824;43.726;20.692;2024-03-23T07:38:50;20.65;;;11.80;;
76850;SDS011;65824;43.726;20.692;2024-03-23T07:41:17;20.30;;;11.70;;
76850;SDS011;65824;43.726;20.692;2024-03-23T07:43:43;23.63;;;13.27;;
76850;SDS011;65824;43.726;20.692;2024-03-23T07:46:09;23.38;;;14.07;;
76850;SDS011;65824;43.726;20.692;2024-03-23T07:48:37;43.58;;;24.42;;
76850;SDS011;65824;43.726;20.692;2024-03-23T07:51:06;33.45;;;18.60;;
76850;SDS011;65824;43.726;20.692;2024-03-23T07:53:33;19.67;;;11.85;;
76850;SDS011;65824;43.726;20.692;2024-03-23T07:56:01;19.23;;;12.20;;
76850;SDS011;65824;43.726;20.692;2024-03-23T07:58:34;17.35;;;11.15;;
76850;SDS011;65824;43.726;20.692;2024-03-23T08:01:08;31.65;;;17.58;;
76850;SDS011;65824;43.726;20.692;2024-03-23T08:03:37;25.80;;;14.85;;
76850;SDS011;65824;43.726;20.692;2024-03-23T08:06:16;19.05;;;12.10;;
76850;SDS011;65824;43.726;20.692;2024-03-23T08:08:44;18.95;;;10.43;;
76850;SDS011;65824;43.726;20.692;2024-03-23T08:11:12;18.05;;;10.18;;
76850;SDS011;65824;43.726;20.692;2024-03-23T08:13:39;16.00;;;9.75;;
76850;SDS011;65824;43.726;20.692;2024-03-23T08:16:05;16.98;;;9.73;;
76850;SDS011;65824;43.726;20.692;2024-03-23T08:18:31;17.52;;;10.75;;
76850;SDS011;65824;43.726;20.692;2024-03-23T08:23:56;20.42;;;10.50;;
76850;SDS011;65824;43.726;20.692;2024-03-23T08:26:22;16.40;;;10.35;;
76850;SDS011;65824;43.726;20.692;2024-03-23T08:28:48;21.45;;;10.65;;
76850;SDS011;65824;43.726;20.692;2024-03-23T08:31:14;18.88;;;11.15;;
76850;SDS011;65824;43.726;20.692;2024-03-23T08:33:42;20.92;;;11.60;;
76850;SDS011;65824;43.726;20.692;2024-03-23T08:36:08;18.65;;;11.00;;
76850;SDS011;65824;43.726;20.692;2024-03-23T08:38:42;20.17;;;11.38;;
76850;SDS011;65824;43.726;20.692;2024-03-23T08:41:09;22.20;;;12.00;;
76850;SDS011;65824;43.726;20.692;2024-03-23T08:43:40;21.80;;;12.27;;
76850;SDS011;65824;43.726;20.692;2024-03-23T08:46:10;18.98;;;11.52;;
76850;SDS011;65824;43.726;20.692;2024-03-23T08:48:42;20.80;;;12.27;;
76850;SDS011;65824;43.726;20.692;2024-03-23T08:51:14;20.92;;;11.48;;
76850;SDS011;65824;43.726;20.692;2024-03-23T08:53:41;24.00;;;12.60;;
76850;SDS011;65824;43.726;20.692;2024-03-23T08:56:10;23.20;;;13.32;;
76850;SDS011;65824;43.726;20.692;2024-03-23T08:58:36;21.98;;;13.25;;
76850;SDS011;65824;43.726;20.692;2024-03-23T09:01:04;21.73;;;12.35;;
76850;SDS011;65824;43.726;20.692;2024-03-23T09:03:30;24.23;;;12.40;;
76850;SDS011;65824;43.726;20.692;2024-03-23T09:05:57;18.13;;;10.98;;
76850;SDS011;65824;43.726;20.692;2024-03-23T09:08:24;19.30;;;11.40;;
76850;SDS011;65824;43.726;20.692;2024-03-23T09:10:50;18.33;;;10.93;;
76850;SDS011;65824;43.726;20.692;2024-03-23T09:13:17;21.52;;;11.27;;
76850;SDS011;65824;43.726;20.692;2024-03-23T09:15:48;21.80;;;10.85;;
76850;SDS011;65824;43.726;20.692;2024-03-23T09:18:16;19.13;;;11.00;;
76850;SDS011;65824;43.726;20.692;2024-03-23T09:20:41;19.80;;;11.38;;
76850;SDS011;65824;43.726;20.692;2024-03-23T09:23:07;18.00;;;10.82;;
76850;SDS011;65824;43.726;20.692;2024-03-23T09:25:39;17.48;;;9.55;;
76850;SDS011;65824;43.726;20.692;2024-03-23T09:28:05;20.70;;;10.18;;
76850;SDS011;65824;43.726;20.692;2024-03-23T09:30:32;18.27;;;9.57;;
76850;SDS011;65824;43.726;20.692;2024-03-23T09:32:58;15.02;;;9.27;;
76850;SDS011;65824;43.726;20.692;2024-03-23T09:35:23;15.32;;;9.57;;
76850;SDS011;65824;43.726;20.692;2024-03-23T09:37:49;17.98;;;10.15;;
76850;SDS011;65824;43.726;20.692;2024-03-23T09:40:17;16.55;;;9.07;;
76850;SDS011;65824;43.726;20.692;2024-03-23T09:42:42;14.98;;;8.57;;
76850;SDS011;65824;43.726;20.692;2024-03-23T09:45:16;21.00;;;9.95;;
76850;SDS011;65824;43.726;20.692;2024-03-23T09:50:12;19.40;;;8.82;;
76850;SDS011;65824;43.726;20.692;2024-03-23T09:52:39;17.33;;;9.32;;
76850;SDS011;65824;43.726;20.692;2024-03-23T09:55:06;16.55;;;8.75;;
76850;SDS011;65824;43.726;20.692;2024-03-23T09:57:33;15.30;;;8.32;;
76850;SDS011;65824;43.726;20.692;2024-03-23T10:00:00;17.38;;;8.40;;
76850;SDS011;65824;43.726;20.692;2024-03-23T10:02:27;17.50;;;7.40;;
76850;SDS011;65824;43.726;20.692;2024-03-23T10:04:54;14.65;;;7.95;;
76850;SDS011;65824;43.726;20.692;2024-03-23T10:07:20;16.00;;;8.20;;
76850;SDS011;65824;43.726;20.692;2024-03-23T10:09:47;12.68;;;6.70;;
76850;SDS011;65824;43.726;20.692;2024-03-23T10:12:13;15.93;;;7.50;;
76850;SDS011;65824;43.726;20.692;2024-03-23T10:14:40;13.88;;;8.07;;
76850;SDS011;65824;43.726;20.692;2024-03-23T10:17:13;15.25;;;7.82;;
76850;SDS011;65824;43.726;20.692;2024-03-23T10:19:46;14.02;;;8.10;;
76850;SDS011;65824;43.726;20.692;2024-03-23T10:22:16;10.60;;;6.80;;
76850;SDS011;65824;43.726;20.692;2024-03-23T10:24:43;9.85;;;6.40;;
76850;SDS011;65824;43.726;20.692;2024-03-23T10:27:09;13.88;;;6.65;;
76850;SDS011;65824;43.726;20.692;2024-03-23T10:29:34;12.00;;;7.20;;
76850;SDS011;65824;43.726;20.692;2024-03-23T10:32:12;13.00;;;7.28;;
76850;SDS011;65824;43.726;20.692;2024-03-23T10:34:39;13.18;;;6.93;;
76850;SDS011;65824;43.726;20.692;2024-03-23T10:37:06;15.38;;;7.22;;
76850;SDS011;65824;43.726;20.692;2024-03-23T10:42:09;14.25;;;6.88;;
76850;SDS011;65824;43.726;20.692;2024-03-23T10:44:38;12.45;;;6.55;;
76850;SDS011;65824;43.726;20.692;2024-03-23T10:47:04;10.75;;;6.53;;
76850;SDS011;65824;43.726;20.692;2024-03-23T10:49:31;10.50;;;5.95;;
76850;SDS011;65824;43.726;20.692;2024-03-23T10:52:03;12.60;;;5.88;;
76850;SDS011;65824;43.726;20.692;2024-03-23T10:54:30;10.27;;;5.85;;
76850;SDS011;65824;43.726;20.692;2024-03-23T10:56:57;10.60;;;6.18;;
76850;SDS011;65824;43.726;20.692;2024-03-23T10:59:26;9.18;;;5.38;;
76850;SDS011;65824;43.726;20.692;2024-03-23T11:01:54;9.73;;;5.72;;
76850;SDS011;65824;43.726;20.692;2024-03-23T11:04:35;9.30;;;5.63;;
76850;SDS011;65824;43.726;20.692;2024-03-23T11:07:06;10.20;;;5.20;;
76850;SDS011;65824;43.726;20.692;2024-03-23T11:09:49;10.02;;;5.63;;
76850;SDS011;65824;43.726;20.692;2024-03-23T11:14:46;10.55;;;5.55;;
76850;SDS011;65824;43.726;20.692;2024-03-23T11:17:17;10.23;;;4.88;;
76850;SDS011;65824;43.726;20.692;2024-03-23T11:19:44;10.25;;;4.75;;
76850;SDS011;65824;43.726;20.692;2024-03-23T11:22:09;11.98;;;6.47;;
76850;SDS011;65824;43.726;20.692;2024-03-23T11:24:35;9.75;;;5.35;;
76850;SDS011;65824;43.726;20.692;2024-03-23T11:27:02;10.52;;;6.25;;
76850;SDS011;65824;43.726;20.692;2024-03-23T11:29:29;10.10;;;5.90;;
76850;SDS011;65824;43.726;20.692;2024-03-23T11:31:55;11.13;;;6.15;;
76850;SDS011;65824;43.726;20.692;2024-03-23T11:34:22;7.68;;;4.93;;
76850;SDS011;65824;43.726;20.692;2024-03-23T11:36:48;7.28;;;4.72;;
76850;SDS011;65824;43.726;20.692;2024-03-23T11:39:16;8.90;;;4.60;;
76850;SDS011;65824;43.726;20.692;2024-03-23T11:41:49;8.55;;;5.30;;
76850;SDS011;65824;43.726;20.692;2024-03-23T11:44:18;9.35;;;4.85;;
76850;SDS011;65824;43.726;20.692;2024-03-23T11:46:45;10.55;;;6.40;;
76850;SDS011;65824;43.726;20.692;2024-03-23T11:51:51;7.35;;;4.60;;
76850;SDS011;65824;43.726;20.692;2024-03-23T11:54:23;9.77;;;5.63;;
76850;SDS011;65824;43.726;20.692;2024-03-23T11:56:59;10.02;;;5.32;;
76850;SDS011;65824;43.726;20.692;2024-03-23T11:59:37;10.40;;;6.47;;
76850;SDS011;65824;43.726;20.692;2024-03-23T12:02:10;9.23;;;5.55;;
76850;SDS011;65824;43.726;20.692;2024-03-23T12:04:39;8.40;;;4.95;;
76850;SDS011;65824;43.726;20.692;2024-03-23T12:07:16;8.93;;;5.40;;
76850;SDS011;65824;43.726;20.692;2024-03-23T12:09:45;8.70;;;5.25;;
76850;SDS011;65824;43.726;20.692;2024-03-23T12:12:15;9.13;;;6.18;;
76850;SDS011;65824;43.726;20.692;2024-03-23T12:14:42;8.57;;;5.30;;
76850;SDS011;65824;43.726;20.692;2024-03-23T12:17:17;10.38;;;5.78;;
76850;SDS011;65824;43.726;20.692;2024-03-23T12:19:43;10.77;;;6.15;;
76850;SDS011;65824;43.726;20.692;2024-03-23T12:22:10;9.75;;;5.80;;
76850;SDS011;65824;43.726;20.692;2024-03-23T12:24:36;7.60;;;4.53;;
76850;SDS011;65824;43.726;20.692;2024-03-23T12:27:10;8.05;;;4.88;;
76850;SDS011;65824;43.726;20.692;2024-03-23T12:29:35;18.92;;;8.82;;
76850;SDS011;65824;43.726;20.692;2024-03-23T12:32:02;10.82;;;5.53;;
76850;SDS011;65824;43.726;20.692;2024-03-23T12:34:28;7.57;;;4.93;;
76850;SDS011;65824;43.726;20.692;2024-03-23T12:36:55;10.38;;;6.28;;
76850;SDS011;65824;43.726;20.692;2024-03-23T12:39:23;11.05;;;6.40;;
76850;SDS011;65824;43.726;20.692;2024-03-23T12:41:49;10.38;;;5.72;;
76850;SDS011;65824;43.726;20.692;2024-03-23T12:44:16;7.35;;;4.38;;
76850;SDS011;65824;43.726;20.692;2024-03-23T12:46:42;9.10;;;5.43;;
76850;SDS011;65824;43.726;20.692;2024-03-23T12:49:07;11.02;;;6.60;;
76850;SDS011;65824;43.726;20.692;2024-03-23T12:51:33;12.13;;;6.72;;
76850;SDS011;65824;43.726;20.692;2024-03-23T12:53:59;10.32;;;5.50;;
76850;SDS011;65824;43.726;20.692;2024-03-23T12:56:24;10.63;;;5.57;;
76850;SDS011;65824;43.726;20.692;2024-03-23T12:58:50;9.98;;;5.22;;
76850;SDS011;65824;43.726;20.692;2024-03-23T13:01:19;9.18;;;5.30;;
76850;SDS011;65824;43.726;20.692;2024-03-23T13:03:47;10.07;;;5.47;;
76850;SDS011;65824;43.726;20.692;2024-03-23T13:06:15;8.93;;;5.75;;
76850;SDS011;65824;43.726;20.692;2024-03-23T13:08:44;9.98;;;5.50;;
76850;SDS011;65824;43.726;20.692;2024-03-23T13:11:10;8.77;;;5.50;;
76850;SDS011;65824;43.726;20.692;2024-03-23T13:13:38;8.52;;;4.85;;
76850;SDS011;65824;43.726;20.692;2024-03-23T13:16:04;10.48;;;5.75;;
76850;SDS011;65824;43.726;20.692;2024-03-23T13:18:30;10.38;;;6.10;;
76850;SDS011;65824;43.726;20.692;2024-03-23T13:20:56;10.82;;;6.43;;
76850;SDS011;65824;43.726;20.692;2024-03-23T13:23:21;9.65;;;6.53;;
76850;SDS011;65824;43.726;20.692;2024-03-23T13:25:50;12.32;;;6.57;;
76850;SDS011;65824;43.726;20.692;2024-03-23T13:33:17;10.32;;;6.35;;
76850;SDS011;65824;43.726;20.692;2024-03-23T13:35:52;12.10;;;6.82;;
76850;SDS011;65824;43.726;20.692;2024-03-23T13:38:20;9.45;;;5.32;;
76850;SDS011;65824;43.726;20.692;2024-03-23T13:40:52;10.52;;;5.90;;
76850;SDS011;65824;43.726;20.692;2024-03-23T13:43:18;8.93;;;4.97;;
76850;SDS011;65824;43.726;20.692;2024-03-23T13:45:44;9.40;;;6.15;;
76850;SDS011;65824;43.726;20.692;2024-03-23T13:48:11;12.15;;;6.57;;
76850;SDS011;65824;43.726;20.692;2024-03-23T13:50:36;11.45;;;6.55;;
76850;SDS011;65824;43.726;20.692;2024-03-23T13:53:02;9.32;;;6.30;;
76850;SDS011;65824;43.726;20.692;2024-03-23T13:55:27;12.73;;;7.28;;
76850;SDS011;65824;43.726;20.692;2024-03-23T13:57:53;12.45;;;7.45;;
76850;SDS011;65824;43.726;20.692;2024-03-23T14:00:19;9.88;;;5.85;;
76850;SDS011;65824;43.726;20.692;2024-03-23T14:02:47;12.70;;;6.93;;
76850;SDS011;65824;43.726;20.692;2024-03-23T14:05:13;13.75;;;7.70;;
76850;SDS011;65824;43.726;20.692;2024-03-23T14:07:40;9.63;;;5.38;;
76850;SDS011;65824;43.726;20.692;2024-03-23T14:10:06;11.18;;;5.72;;
76850;SDS011;65824;43.726;20.692;2024-03-23T14:12:32;11.20;;;6.50;;
76850;SDS011;65824;43.726;20.692;2024-03-23T14:14:57;10.88;;;6.55;;
76850;SDS011;65824;43.726;20.692;2024-03-23T14:17:23;12.27;;;6.50;;
76850;SDS011;65824;43.726;20.692;2024-03-23T14:19:51;11.90;;;6.88;;
76850;SDS011;65824;43.726;20.692;2024-03-23T14:22:16;13.20;;;7.68;;
76850;SDS011;65824;43.726;20.692;2024-03-23T14:24:46;13.20;;;7.55;;
76850;SDS011;65824;43.726;20.692;2024-03-23T14:27:11;11.68;;;7.13;;
76850;SDS011;65824;43.726;20.692;2024-03-23T14:29:37;11.88;;;6.47;;
76850;SDS011;65824;43.726;20.692;2024-03-23T14:32:05;14.77;;;7.47;;
76850;SDS011;65824;43.726;20.692;2024-03-23T14:34:31;10.05;;;6.38;;
76850;SDS011;65824;43.726;20.692;2024-03-23T14:36:56;8.77;;;5.82;;
76850;SDS011;65824;43.726;20.692;2024-03-23T14:39:23;12.52;;;7.18;;
76850;SDS011;65824;43.726;20.692;2024-03-23T14:41:50;9.63;;;5.80;;
76850;SDS011;65824;43.726;20.692;2024-03-23T14:44:15;12.35;;;6.75;;
76850;SDS011;65824;43.726;20.692;2024-03-23T14:46:41;10.02;;;5.65;;
76850;SDS011;65824;43.726;20.692;2024-03-23T14:49:06;10.07;;;5.97;;
76850;SDS011;65824;43.726;20.692;2024-03-23T14:51:33;9.82;;;6.40;;
76850;SDS011;65824;43.726;20.692;2024-03-23T14:53:59;14.23;;;6.28;;
76850;SDS011;65824;43.726;20.692;2024-03-23T14:56:28;13.02;;;6.55;;
76850;SDS011;65824;43.726;20.692;2024-03-23T14:58:53;13.45;;;6.80;;
76850;SDS011;65824;43.726;20.692;2024-03-23T15:01:20;12.77;;;6.90;;
76850;SDS011;65824;43.726;20.692;2024-03-23T15:03:46;14.70;;;8.20;;
76850;SDS011;65824;43.726;20.692;2024-03-23T15:06:13;11.73;;;6.22;;
76850;SDS011;65824;43.726;20.692;2024-03-23T15:08:39;10.60;;;6.38;;
76850;SDS011;65824;43.726;20.692;2024-03-23T15:11:05;8.73;;;5.15;;
76850;SDS011;65824;43.726;20.692;2024-03-23T15:13:34;11.30;;;6.38;;
76850;SDS011;65824;43.726;20.692;2024-03-23T15:16:00;11.25;;;6.82;;
76850;SDS011;65824;43.726;20.692;2024-03-23T15:18:28;11.38;;;6.20;;
76850;SDS011;65824;43.726;20.692;2024-03-23T15:20:58;13.02;;;7.05;;
76850;SDS011;65824;43.726;20.692;2024-03-23T15:23:28;11.20;;;7.00;;
76850;SDS011;65824;43.726;20.692;2024-03-23T15:25:57;12.27;;;6.50;;